Time;durP1;ratioP1;P1;durP2;ratioP2;P2;SDS_P1;SDS_P2;PMS_P1;PMS_P2;Temp;Humidity;BMP_temperature;BMP_pressure;BME280_temperature;BME280_humidity;BME280_pressure;Samples;Min_cycle;Max_cycle;Signal;HPM_P1;HPM_P2
2024/01/18 00:02:01;;;;;;;41.97;18.92;;;;;;;0.21;100.00;97767.16;5016776;28;20344;-76
2024/01/18 00:04:29;;;;;;;41.00;18.85;;;;;;;0.22;100.00;97773.19;5016578;28;20102;-76
2024/01/18 00:06:59;;;;;;;40.28;19.05;;;;;;;0.20;100.00;97773.28;5026871;28;20050;-76
2024/01/18 00:09:30;;;;;;;42.10;17.70;;;;;;;0.19;100.00;97774.19;5006343;28;20065;-76
2024/01/18 00:11:59;;;;;;;38.95;18.35;;;;;;;0.21;100.00;97787.97;5021576;28;20056;-77
2024/01/18 00:14:28;;;;;;;35.67;18.13;;;;;;;0.21;100.00;97792.34;5020606;28;20080;-76
2024/01/18 00:16:56;;;;;;;36.85;18.42;;;;;;;0.21;100.00;97794.94;5010823;28;20046;-77
2024/01/18 00:19:25;;;;;;;37.10;17.73;;;;;;;0.26;100.00;97806.84;5023770;28;20347;-76
2024/01/18 00:21:53;;;;;;;36.70;18.25;;;;;;;0.25;100.00;97825.13;4999835;28;20246;-75
2024/01/18 00:24:21;;;;;;;35.75;16.63;;;;;;;0.25;100.00;97822.50;5003476;28;20053;-76
2024/01/18 00:26:49;;;;;;;38.20;16.58;;;;;;;0.21;100.00;97819.19;4998665;28;20050;-77
2024/01/18 00:29:21;;;;;;;33.20;16.42;;;;;;;0.19;100.00;97825.38;5020767;28;20434;-76
2024/01/18 00:31:50;;;;;;;32.72;15.88;;;;;;;0.20;100.00;97820.13;5015472;28;20041;-76
2024/01/18 00:34:22;;;;;;;36.78;16.58;;;;;;;0.20;100.00;97827.06;5024275;28;20049;-75
2024/01/18 00:36:51;;;;;;;32.78;16.27;;;;;;;0.20;100.00;97825.31;5012688;28;20045;-75
2024/01/18 00:39:20;;;;;;;29.30;15.20;;;;;;;0.22;100.00;97830.47;5023314;28;20088;-76
2024/01/18 00:41:48;;;;;;;34.85;15.40;;;;;;;0.18;100.00;97826.31;5010889;28;20080;-75
2024/01/18 00:44:21;;;;;;;28.27;14.32;;;;;;;0.17;100.00;97825.47;4990590;28;20049;-76
2024/01/18 00:46:54;;;;;;;30.63;15.40;;;;;;;0.19;100.00;97841.00;5014977;28;20364;-75
2024/01/18 00:49:24;;;;;;;30.13;14.48;;;;;;;0.19;100.00;97848.81;5009541;28;20069;-75
2024/01/18 00:51:56;;;;;;;30.13;14.65;;;;;;;0.21;100.00;97845.22;5036116;28;20045;-75
2024/01/18 00:54:25;;;;;;;28.92;13.82;;;;;;;0.23;100.00;97846.00;5024394;28;20056;-75
2024/01/18 00:56:55;;;;;;;28.92;14.10;;;;;;;0.23;100.00;97861.63;5019987;28;20403;-76
2024/01/18 00:59:24;;;;;;;27.60;13.35;;;;;;;0.24;100.00;97871.13;5030642;28;20041;-75
2024/01/18 01:01:55;;;;;;;26.40;13.68;;;;;;;0.21;100.00;97873.00;5015486;28;20298;-77
2024/01/18 01:04:24;;;;;;;29.20;14.27;;;;;;;0.21;100.00;97873.00;5027724;28;20038;-75
2024/01/18 01:06:52;;;;;;;23.35;13.50;;;;;;;0.22;100.00;97882.50;5017888;28;20053;-75
2024/01/18 01:09:22;;;;;;;30.40;14.32;;;;;;;0.22;100.00;97878.16;5036418;28;20046;-76
2024/01/18 01:11:51;;;;;;;26.58;13.63;;;;;;;0.24;100.00;97875.47;5015032;28;20604;-75
2024/01/18 01:14:21;;;;;;;28.63;13.75;;;;;;;0.22;100.00;97883.34;5012342;28;20136;-75
2024/01/18 01:16:49;;;;;;;28.38;13.68;;;;;;;0.21;100.00;97879.06;5032000;28;20124;-75
2024/01/18 01:19:18;;;;;;;24.33;12.95;;;;;;;0.23;100.00;97881.59;5022151;28;20041;-75
2024/01/18 01:21:47;;;;;;;28.95;13.35;;;;;;;0.19;100.00;97886.09;5025032;28;20084;-75
2024/01/18 01:24:17;;;;;;;19.10;9.85;;;;;;;0.17;100.00;97885.31;5016494;28;20049;-76
2024/01/18 01:26:46;;;;;;;23.52;12.52;;;;;;;0.18;100.00;97881.78;5045563;28;20554;-76
2024/01/18 01:29:16;;;;;;;24.23;12.02;;;;;;;0.17;100.00;97885.31;5004602;28;20120;-76
2024/01/18 01:31:44;;;;;;;22.25;11.70;;;;;;;0.15;100.00;97887.16;5041583;28;20124;-76
2024/01/18 01:34:13;;;;;;;25.00;11.98;;;;;;;0.03;100.00;97877.28;5028756;28;20046;-76
2024/01/18 01:36:42;;;;;;;22.05;11.50;;;;;;;0.14;100.00;97898.50;5043327;28;20081;-76
2024/01/18 01:39:11;;;;;;;21.55;11.55;;;;;;;0.11;100.00;97901.22;5021294;28;20057;-75
2024/01/18 01:41:40;;;;;;;20.65;11.18;;;;;;;0.10;100.00;97904.72;5042144;28;20117;-75
2024/01/18 01:44:11;;;;;;;20.25;10.70;;;;;;;0.14;100.00;97901.09;5028395;28;20037;-75
2024/01/18 01:46:40;;;;;;;20.17;11.15;;;;;;;0.14;100.00;97898.50;5048605;28;20064;-75
2024/01/18 01:49:09;;;;;;;21.95;10.60;;;;;;;0.15;100.00;97905.38;5018003;28;20089;-75
2024/01/18 01:51:48;;;;;;;19.58;10.10;;;;;;;0.13;100.00;97899.41;5016688;28;20091;-75
2024/01/18 01:54:25;;;;;;;24.42;10.05;;;;;;;0.16;100.00;97906.22;5023781;28;20055;-75
2024/01/18 01:56:57;;;;;;;19.08;10.38;;;;;;;0.13;100.00;97916.75;5019306;28;20540;-76
2024/01/18 01:59:27;;;;;;;17.80;9.50;;;;;;;0.11;100.00;97916.84;5024732;28;20057;-75
2024/01/18 02:01:59;;;;;;;12.52;7.30;;;;;;;0.08;100.00;97913.50;5045585;28;20060;-75
2024/01/18 02:04:28;;;;;;;17.52;9.68;;;;;;;0.09;100.00;97910.84;5009890;28;20426;-77
2024/01/18 02:07:00;;;;;;;22.20;9.77;;;;;;;0.10;100.00;97912.53;5027910;28;20050;-77
2024/01/18 02:09:38;;;;;;;19.23;9.00;;;;;;;0.12;100.00;97907.28;5028615;28;20079;-76
2024/01/18 02:12:09;;;;;;;17.90;9.07;;;;;;;0.14;100.00;97887.22;5026592;28;20051;-76
2024/01/18 02:14:40;;;;;;;20.02;10.02;;;;;;;0.09;100.00;97890.03;5031186;28;20105;-76
2024/01/18 02:17:08;;;;;;;16.40;9.20;;;;;;;0.05;100.00;97903.22;5032956;28;20049;-76
2024/01/18 02:19:38;;;;;;;21.63;9.80;;;;;;;0.02;100.00;97901.59;5023235;28;20061;-75
2024/01/18 02:22:08;;;;;;;19.17;10.00;;;;;;;-0.01;100.00;97899.16;5031635;28;20065;-75
2024/01/18 02:24:42;;;;;;;17.85;9.02;;;;;;;-0.01;100.00;97901.78;5033891;28;20049;-75
2024/01/18 02:27:11;;;;;;;21.90;9.68;;;;;;;-0.03;100.00;97898.38;5046953;28;20060;-76
2024/01/18 02:29:39;;;;;;;16.40;9.07;;;;;;;-0.07;100.00;97878.63;5042427;28;20064;-75
2024/01/18 02:32:08;;;;;;;20.20;9.50;;;;;;;-0.12;100.00;97927.38;5031903;28;20041;-76
2024/01/18 02:34:39;;;;;;;20.83;9.63;;;;;;;-0.17;100.00;97922.41;5012273;28;20049;-76
2024/01/18 02:37:07;;;;;;;15.90;8.98;;;;;;;-0.16;100.00;97907.66;5030638;28;20414;-78
2024/01/18 02:39:36;;;;;;;20.33;10.02;;;;;;;-0.21;100.00;97917.41;5017254;28;20118;-75
2024/01/18 02:42:05;;;;;;;20.33;9.75;;;;;;;-0.22;100.00;97921.75;5048618;28;20091;-75
2024/01/18 02:44:37;;;;;;;;;;;;;;;-0.23;100.00;97920.06;5029327;28;20042;-75
2024/01/18 02:47:06;;;;;;;19.80;9.82;;;;;;;-0.27;100.00;97920.25;5025721;28;19935;-75
2024/01/18 02:49:37;;;;;;;17.50;10.00;;;;;;;-0.26;100.00;97907.19;5024694;28;20069;-76
2024/01/18 02:52:06;;;;;;;19.30;9.43;;;;;;;-0.23;100.00;97916.63;5034460;28;20115;-75
2024/01/18 02:54:37;;;;;;;18.92;9.45;;;;;;;-0.17;100.00;97912.00;5027008;28;20055;-76
2024/01/18 02:57:05;;;;;;;21.60;10.70;;;;;;;-0.19;100.00;97919.03;5031280;28;20041;-76
2024/01/18 02:59:33;;;;;;;16.35;8.70;;;;;;;-0.19;100.00;97934.63;5009056;28;20059;-75
2024/01/18 03:02:04;;;;;;;21.35;10.02;;;;;;;-0.21;100.00;97909.59;5031175;28;20045;-76
2024/01/18 03:04:33;;;;;;;19.83;8.90;;;;;;;-0.24;100.00;97939.16;5026504;28;20364;-77
2024/01/18 03:07:03;;;;;;;16.45;8.77;;;;;;;-0.25;100.00;97947.88;5046882;28;20460;-75
2024/01/18 03:09:32;;;;;;;17.58;8.88;;;;;;;-0.25;100.00;97908.03;5042559;28;20045;-76
2024/01/18 03:11:59;;;;;;;16.45;8.52;;;;;;;-0.26;100.00;97925.38;5046567;28;20037;-75
2024/01/18 03:14:32;;;;;;;16.88;9.05;;;;;;;-0.26;100.00;97919.34;5029480;28;20145;-75
2024/01/18 03:17:09;;;;;;;16.13;7.93;;;;;;;-0.24;100.00;97920.13;5047162;28;20042;-76
2024/01/18 03:19:38;;;;;;;15.13;8.30;;;;;;;-0.26;100.00;97906.34;5027614;28;20060;-77
2024/01/18 03:22:06;;;;;;;16.52;8.07;;;;;;;-0.26;100.00;97901.97;5051028;28;20053;-75
2024/01/18 03:24:33;;;;;;;16.48;8.13;;;;;;;-0.23;100.00;97917.47;5015118;28;20037;-77
2024/01/18 03:27:02;;;;;;;14.57;7.93;;;;;;;-0.27;100.00;97918.50;5049965;28;20049;-78
2024/01/18 03:29:39;;;;;;;18.23;8.30;;;;;;;-0.18;100.00;97935.47;5023131;28;20050;-77
2024/01/18 03:32:13;;;;;;;13.77;8.20;;;;;;;-0.14;100.00;97945.66;5032547;28;20056;-76
2024/01/18 03:34:42;;;;;;;14.38;7.35;;;;;;;-0.15;100.00;97950.91;5029945;28;20124;-76
2024/01/18 03:37:13;;;;;;;14.52;7.55;;;;;;;-0.15;100.00;97943.13;5022222;28;20049;-76
2024/01/18 03:39:41;;;;;;;15.85;7.50;;;;;;;-0.14;100.00;97944.81;5024194;28;20116;-76
2024/01/18 03:42:09;;;;;;;13.27;7.72;;;;;;;-0.19;100.00;97923.38;5035018;28;20180;-75
2024/01/18 03:44:37;;;;;;;14.55;7.45;;;;;;;-0.21;100.00;97920.84;5019314;28;20112;-77
2024/01/18 03:47:09;;;;;;;13.63;6.95;;;;;;;-0.20;100.00;97924.28;5028485;28;20053;-79
2024/01/18 03:49:40;;;;;;;;;;;;;;;-0.22;100.00;97929.56;5032249;28;20421;-75
2024/01/18 03:52:09;;;;;;;13.00;6.50;;;;;;;-0.26;100.00;97925.38;5034287;28;20771;-75
2024/01/18 03:54:37;;;;;;;10.95;6.63;;;;;;;-0.21;100.00;97936.44;5047136;28;20696;-75
2024/01/18 03:57:05;;;;;;;13.52;6.78;;;;;;;-0.20;100.00;97934.69;5030428;28;20099;-75
2024/01/18 03:59:34;;;;;;;11.43;6.40;;;;;;;-0.22;100.00;97923.50;5019480;28;20063;-74
2024/01/18 04:02:06;;;;;;;12.65;6.38;;;;;;;-0.24;100.00;97931.38;5026541;28;20038;-75
2024/01/18 04:04:36;;;;;;;;;;;;;;;-0.25;100.00;97945.28;5029338;28;20050;-76
2024/01/18 04:07:04;;;;;;;11.95;6.30;;;;;;;-0.24;100.00;97946.13;5025561;28;19921;-74
2024/01/18 04:09:35;;;;;;;11.82;5.70;;;;;;;-0.28;100.00;97944.56;5027085;28;20045;-75
2024/01/18 04:12:06;;;;;;;10.18;6.20;;;;;;;-0.30;100.00;97949.81;5049829;28;20133;-75
2024/01/18 04:14:40;;;;;;;11.25;6.55;;;;;;;-0.32;100.00;97943.03;5047816;28;20323;-76
2024/01/18 04:17:10;;;;;;;9.43;6.07;;;;;;;-0.33;100.00;97944.78;5033731;28;20506;-76
2024/01/18 04:19:43;;;;;;;11.82;6.45;;;;;;;-0.38;100.00;97934.56;5027613;28;20137;-75
2024/01/18 04:22:16;;;;;;;12.20;7.03;;;;;;;-0.33;100.00;97946.53;5056487;28;20088;-74
2024/01/18 04:24:45;;;;;;;15.00;7.45;;;;;;;-0.36;100.00;97947.50;5045078;28;20041;-77
2024/01/18 04:27:15;;;;;;;11.70;6.97;;;;;;;-0.40;100.00;97940.72;5049012;28;20038;-75
2024/01/18 04:29:44;;;;;;;15.38;7.70;;;;;;;-0.41;100.00;97937.28;5011880;28;20109;-76
2024/01/18 04:32:14;;;;;;;13.85;7.70;;;;;;;-0.39;100.00;97930.28;5027456;28;20042;-74
2024/01/18 04:34:48;;;;;;;14.43;7.88;;;;;;;-0.43;100.00;97933.91;5033357;28;20945;-75
2024/01/18 04:37:18;;;;;;;16.95;8.23;;;;;;;-0.45;100.00;97925.31;5033812;28;20045;-74
2024/01/18 04:39:47;;;;;;;13.75;7.90;;;;;;;-0.40;100.00;97941.56;5040739;28;20049;-75
2024/01/18 04:42:16;;;;;;;14.52;8.70;;;;;;;-0.43;100.00;97953.84;5033785;28;20045;-76
2024/01/18 04:44:44;;;;;;;13.50;7.93;;;;;;;-0.48;100.00;97956.66;5030553;28;20047;-74
2024/01/18 04:47:12;;;;;;;14.93;8.15;;;;;;;-0.44;100.00;97970.34;5031025;28;20029;-75
2024/01/18 04:49:40;;;;;;;19.60;10.02;;;;;;;-0.50;100.00;97973.22;5029866;28;20051;-73
2024/01/18 04:52:10;;;;;;;19.08;8.73;;;;;;;-0.43;100.00;97998.91;5036542;28;20049;-73
2024/01/18 04:54:41;;;;;;;16.17;8.45;;;;;;;-0.44;100.00;98011.94;5034011;28;20544;-74
2024/01/18 04:57:11;;;;;;;18.10;9.07;;;;;;;-0.42;100.00;98013.59;5033627;28;20053;-74
2024/01/18 04:59:40;;;;;;;13.15;7.57;;;;;;;-0.43;100.00;98011.03;5047478;28;20618;-75
2024/01/18 05:02:11;;;;;;;18.55;8.25;;;;;;;-0.49;100.00;98006.13;5034133;28;20045;-74
2024/01/18 05:04:40;;;;;;;16.73;8.40;;;;;;;-0.47;100.00;98018.13;5033906;28;20057;-73
2024/01/18 05:07:10;;;;;;;14.83;8.23;;;;;;;-0.59;100.00;98007.38;5047445;28;20053;-77
2024/01/18 05:09:39;;;;;;;10.93;5.57;;;;;;;-0.51;100.00;98029.56;5025340;28;20468;-73
2024/01/18 05:12:09;;;;;;;15.05;7.85;;;;;;;-0.60;100.00;98021.28;5049606;28;20175;-72
2024/01/18 05:14:40;;;;;;;13.98;7.20;;;;;;;-0.55;100.00;98030.59;5051786;28;20553;-72
2024/01/18 05:17:12;;;;;;;16.65;7.65;;;;;;;-0.67;100.00;98017.25;5027711;28;20132;-73
2024/01/18 05:19:41;;;;;;;14.00;7.13;;;;;;;-0.56;100.00;98036.69;5034391;28;20402;-72
2024/01/18 05:22:13;;;;;;;17.23;7.53;;;;;;;-0.61;100.00;98022.19;5038277;28;20078;-72
2024/01/18 05:24:44;;;;;;;12.25;7.07;;;;;;;-0.55;100.00;98030.59;5040642;28;20042;-73
2024/01/18 05:27:14;;;;;;;12.05;7.43;;;;;;;-0.59;100.00;98023.81;5041252;28;20045;-73
2024/01/18 05:29:47;;;;;;;14.68;7.78;;;;;;;-0.53;100.00;98023.59;5028747;28;20141;-72
2024/01/18 05:32:15;;;;;;;13.60;7.47;;;;;;;-0.54;100.00;98034.88;5032989;28;20411;-73
2024/01/18 05:34:45;;;;;;;13.63;7.53;;;;;;;-0.56;100.00;98035.84;5032295;28;20045;-72
2024/01/18 05:37:14;;;;;;;12.13;6.35;;;;;;;-0.62;100.00;98025.69;5039940;28;20041;-74
2024/01/18 05:39:45;;;;;;;12.60;6.47;;;;;;;-0.59;100.00;98038.56;5043378;28;20038;-73
2024/01/18 05:42:13;;;;;;;9.95;5.32;;;;;;;-0.59;100.00;98038.56;5046139;28;20045;-73
2024/01/18 05:44:43;;;;;;;11.93;5.50;;;;;;;-0.63;100.00;98043.03;5025259;28;20165;-73
2024/01/18 05:47:11;;;;;;;9.88;5.70;;;;;;;-0.67;100.00;98053.63;5034659;28;20057;-74
2024/01/18 05:49:39;;;;;;;12.88;6.03;;;;;;;-0.73;100.00;98052.09;5038664;28;20049;-74
2024/01/18 05:52:09;;;;;;;10.88;6.28;;;;;;;-0.78;100.00;98060.06;5031611;28;20107;-73
2024/01/18 05:54:38;;;;;;;11.98;6.47;;;;;;;-0.81;100.00;98061.97;5048745;28;20037;-72
2024/01/18 05:57:06;;;;;;;13.88;6.43;;;;;;;-0.81;100.00;98059.38;5029659;28;20053;-72
2024/01/18 05:59:34;;;;;;;11.98;7.00;;;;;;;-0.77;100.00;98059.16;5040757;28;20057;-72
2024/01/18 06:02:03;;;;;;;15.05;6.93;;;;;;;-0.78;100.00;98064.41;5026312;28;20045;-71
2024/01/18 06:04:33;;;;;;;12.55;6.00;;;;;;;-0.78;100.00;98074.81;5041204;28;20133;-72
2024/01/18 06:07:03;;;;;;;13.18;5.72;;;;;;;-0.86;100.00;98064.72;5032541;28;20055;-71
2024/01/18 06:09:31;;;;;;;9.73;5.13;;;;;;;-0.87;100.00;98080.38;5039617;28;20145;-72
2024/01/18 06:12:03;;;;;;;9.02;5.40;;;;;;;-0.91;100.00;98068.41;5032620;28;20107;-73
2024/01/18 06:14:31;;;;;;;8.77;4.95;;;;;;;-0.99;100.00;98071.31;5030416;28;20049;-72
2024/01/18 06:17:06;;;;;;;10.55;5.85;;;;;;;-1.03;100.00;98074.91;5038340;28;20064;-71
2024/01/18 06:19:34;;;;;;;12.27;6.07;;;;;;;-1.20;100.00;98061.69;5036715;28;20072;-71
2024/01/18 06:22:09;;;;;;;11.60;6.55;;;;;;;-1.17;100.00;98069.38;5049414;28;20250;-72
2024/01/18 06:24:42;;;;;;;13.10;7.22;;;;;;;-1.19;100.00;98097.16;5046891;28;20050;-72
2024/01/18 06:27:11;;;;;;;13.30;7.63;;;;;;;-1.23;100.00;98099.00;5038883;28;20065;-74
2024/01/18 06:29:42;;;;;;;11.23;6.75;;;;;;;-1.24;100.00;98102.50;5051546;28;20057;-73
2024/01/18 06:32:13;;;;;;;;;;;;;;;-1.28;100.00;98100.94;5036298;28;20053;-71
2024/01/18 06:34:41;;;;;;;15.40;8.25;;;;;;;-1.42;100.00;98103.19;5033565;28;19993;-72
2024/01/18 06:37:09;;;;;;;11.55;6.95;;;;;;;-1.42;100.00;98114.38;5031877;28;20076;-74
2024/01/18 06:39:37;;;;;;;14.30;8.40;;;;;;;-1.52;100.00;98107.00;5021638;28;20057;-72
2024/01/18 06:42:07;;;;;;;15.32;8.32;;;;;;;-1.47;100.00;98129.31;5023044;28;20415;-71
2024/01/18 06:44:38;;;;;;;16.38;8.50;;;;;;;-1.51;100.00;98135.50;5030373;28;20038;-72
2024/01/18 06:47:06;;;;;;;18.00;8.68;;;;;;;-1.55;100.00;98123.50;5025816;28;20095;-72
2024/01/18 06:49:39;;;;;;;14.32;7.78;;;;;;;-1.55;100.00;98127.84;5025096;28;20048;-71
2024/01/18 06:52:07;;;;;;;12.75;7.75;;;;;;;-1.58;100.00;98127.97;5014093;28;20045;-72
2024/01/18 06:54:36;;;;;;;15.02;7.63;;;;;;;-1.51;100.00;98145.03;5025774;28;20044;-71
2024/01/18 06:57:06;;;;;;;14.07;8.10;;;;;;;-1.58;100.00;98133.19;5035549;28;20110;-72
2024/01/18 06:59:35;;;;;;;15.50;7.70;;;;;;;-1.58;100.00;98140.97;5043464;28;20048;-71
2024/01/18 07:02:04;;;;;;;15.32;8.48;;;;;;;-1.67;100.00;98117.91;4998351;28;20452;-71
2024/01/18 07:04:33;;;;;;;14.43;7.63;;;;;;;-1.60;100.00;98134.97;5022890;28;20064;-71
2024/01/18 07:07:04;;;;;;;13.18;7.95;;;;;;;-1.57;100.00;98142.63;5051976;28;20041;-71
2024/01/18 07:09:34;;;;;;;18.05;8.38;;;;;;;-1.53;100.00;98142.47;5022236;28;20052;-73
2024/01/18 07:12:04;;;;;;;14.30;7.77;;;;;;;-1.59;100.00;98137.50;5025677;28;20045;-72
2024/01/18 07:14:32;;;;;;;14.60;8.10;;;;;;;-1.53;100.00;98141.63;5045290;28;20041;-72
2024/01/18 07:17:02;;;;;;;15.43;9.18;;;;;;;-1.52;100.00;98140.72;5054836;28;20065;-72
2024/01/18 07:19:34;;;;;;;14.45;8.25;;;;;;;-1.55;100.00;98138.22;5012251;28;20049;-72
2024/01/18 07:22:06;;;;;;;15.57;8.60;;;;;;;-1.53;100.00;98152.00;5040829;28;20123;-73
2024/01/18 07:24:34;;;;;;;15.07;8.45;;;;;;;-1.49;100.00;98159.66;5031850;28;20099;-73
2024/01/18 07:27:09;;;;;;;19.55;9.38;;;;;;;-1.63;100.00;98150.63;5041647;28;20062;-71
2024/01/18 07:29:39;;;;;;;17.63;8.85;;;;;;;-1.58;100.00;98165.16;5046164;28;20049;-73
2024/01/18 07:32:07;;;;;;;18.00;9.35;;;;;;;-1.60;100.00;98164.38;5017609;28;20053;-74
2024/01/18 07:34:39;;;;;;;19.35;9.70;;;;;;;-1.72;100.00;98154.38;5036638;28;20042;-74
2024/01/18 07:37:12;;;;;;;17.90;9.30;;;;;;;-1.64;100.00;98169.69;5047157;28;20052;-73
2024/01/18 07:39:41;;;;;;;17.70;9.55;;;;;;;-1.63;100.00;98169.66;5032932;28;20460;-73
2024/01/18 07:42:09;;;;;;;21.08;10.77;;;;;;;-1.72;100.00;98174.28;5043880;28;20044;-72
2024/01/18 07:44:39;;;;;;;20.52;9.80;;;;;;;-1.67;100.00;98180.19;5034707;28;20132;-74
2024/01/18 07:47:10;;;;;;;16.83;9.07;;;;;;;-1.61;100.00;98174.78;5033212;28;20104;-72
2024/01/18 07:49:45;;;;;;;19.27;10.30;;;;;;;-1.63;100.00;98161.88;5022249;28;21847;-72
2024/01/18 07:52:20;;;;;;;21.67;10.43;;;;;;;-1.58;100.00;98169.50;5024322;28;20522;-71
2024/01/18 07:54:51;;;;;;;18.52;10.27;;;;;;;-1.64;100.00;98169.69;5032442;28;20071;-73
2024/01/18 07:57:21;;;;;;;21.23;10.63;;;;;;;-1.56;100.00;98178.91;5052830;28;20099;-73
2024/01/18 07:59:49;;;;;;;23.45;11.07;;;;;;;-1.56;100.00;98170.28;5031059;28;20053;-78
2024/01/18 08:02:17;;;;;;;19.55;10.65;;;;;;;-1.49;100.00;98187.34;5026199;28;20091;-73
2024/01/18 08:04:48;;;;;;;21.35;10.75;;;;;;;-1.47;100.00;98186.41;5028768;28;20108;-72
2024/01/18 08:07:18;;;;;;;19.40;10.75;;;;;;;-1.46;100.00;98184.66;5035273;28;20064;-73
2024/01/18 08:09:49;;;;;;;23.90;11.32;;;;;;;-1.40;100.00;98187.03;5043642;28;20077;-72
2024/01/18 08:12:17;;;;;;;19.48;9.80;;;;;;;-1.38;100.00;98180.03;5034987;28;20049;-72
2024/01/18 08:14:46;;;;;;;19.13;10.10;;;;;;;-1.34;100.00;98197.22;5039370;28;20045;-73
2024/01/18 08:17:15;;;;;;;21.10;11.60;;;;;;;-1.47;100.00;98177.78;5047607;28;20042;-72
2024/01/18 08:19:44;;;;;;;24.20;11.27;;;;;;;-1.34;100.00;98193.75;5038189;28;20091;-72
2024/01/18 08:22:15;;;;;;;20.50;11.30;;;;;;;-1.38;100.00;98195.63;5033698;28;20048;-73
2024/01/18 08:24:43;;;;;;;17.98;10.13;;;;;;;-1.24;100.00;98214.16;5057166;28;20069;-71
2024/01/18 08:27:14;;;;;;;29.20;12.13;;;;;;;-1.28;100.00;98196.16;5060043;28;20053;-72
2024/01/18 08:29:44;;;;;;;23.33;11.85;;;;;;;-1.29;100.00;98210.91;5052962;28;20052;-72
2024/01/18 08:32:19;;;;;;;24.67;11.40;;;;;;;-1.28;100.00;98211.75;5039987;28;20037;-71
2024/01/18 08:34:50;;;;;;;25.08;12.27;;;;;;;-1.25;100.00;98212.47;5045142;28;20124;-73
2024/01/18 08:37:24;;;;;;;23.70;12.60;;;;;;;-1.26;100.00;98223.75;5058844;28;20067;-73
2024/01/18 08:39:54;;;;;;;21.30;11.20;;;;;;;-1.30;100.00;98219.59;5043493;28;20049;-71
2024/01/18 08:42:25;;;;;;;22.00;11.20;;;;;;;-1.19;100.00;98239.97;5046352;28;20068;-72
2024/01/18 08:44:55;;;;;;;20.77;11.05;;;;;;;-1.18;100.00;98233.88;5052845;28;20061;-73
2024/01/18 08:47:26;;;;;;;20.52;11.25;;;;;;;-1.06;100.00;98242.09;5033916;28;20041;-72
2024/01/18 08:49:55;;;;;;;22.90;11.38;;;;;;;-1.07;100.00;98250.78;5043978;28;20042;-71
2024/01/18 08:52:26;;;;;;;25.05;12.35;;;;;;;-0.97;100.00;98251.34;5022116;28;20050;-74
2024/01/18 08:54:56;;;;;;;24.60;13.00;;;;;;;-1.01;100.00;98249.75;5061727;28;20056;-72
2024/01/18 08:57:25;;;;;;;23.67;13.00;;;;;;;-0.91;100.00;98250.25;5034024;28;20147;-72
2024/01/18 08:59:53;;;;;;;28.45;15.43;;;;;;;-0.81;100.00;98256.84;5042741;28;20057;-72
2024/01/18 09:02:22;;;;;;;28.48;15.27;;;;;;;-0.80;100.00;98268.94;5040930;28;20052;-71
2024/01/18 09:04:51;;;;;;;34.03;15.37;;;;;;;-0.75;100.00;98265.25;5037661;28;20187;-72
2024/01/18 09:07:20;;;;;;;31.35;17.15;;;;;;;-0.82;100.00;98265.53;5036689;28;20096;-73
2024/01/18 09:09:50;;;;;;;28.63;16.80;;;;;;;-0.85;100.00;98271.69;5037394;28;20068;-75
2024/01/18 09:12:19;;;;;;;31.50;16.58;;;;;;;-0.79;100.00;98281.03;5036598;28;20045;-72
2024/01/18 09:14:48;;;;;;;31.58;15.85;;;;;;;-0.82;100.00;98275.94;5017171;28;20095;-72
2024/01/18 09:17:16;;;;;;;30.73;16.35;;;;;;;-0.83;100.00;98271.63;5052724;28;20038;-73
2024/01/18 09:19:45;;;;;;;30.92;16.95;;;;;;;-0.89;100.00;98279.63;5041847;28;20037;-73
2024/01/18 09:22:13;;;;;;;29.65;17.17;;;;;;;-0.80;100.00;98287.13;5049758;28;20045;-73
2024/01/18 09:24:43;;;;;;;31.85;17.67;;;;;;;-0.81;100.00;98288.03;5033581;28;20091;-73
2024/01/18 09:27:18;;;;;;;31.17;17.70;;;;;;;-0.74;100.00;98292.09;5026100;28;20070;-74
2024/01/18 09:29:47;;;;;;;34.97;17.08;;;;;;;-0.77;100.00;98303.44;5033856;28;20057;-75
2024/01/18 09:32:25;;;;;;;31.88;16.90;;;;;;;-0.73;100.00;98305.03;5024091;28;20033;-72
2024/01/18 09:34:54;;;;;;;32.75;17.25;;;;;;;-0.64;100.00;98316.88;5033010;28;20071;-76
2024/01/18 09:37:23;;;;;;;33.47;16.00;;;;;;;-0.62;100.00;98309.84;5029563;28;20050;-74
2024/01/18 09:39:53;;;;;;;;;;;;;;;-0.58;100.00;98326.19;5031015;28;20069;-75
2024/01/18 09:42:25;;;;;;;30.58;16.50;;;;;;;-0.57;100.00;98335.69;5031869;28;20515;-75
2024/01/18 09:44:54;;;;;;;35.67;17.30;;;;;;;-0.56;100.00;98351.22;5010757;28;20528;-73
2024/01/18 09:47:25;;;;;;;33.10;18.08;;;;;;;-0.70;100.00;98337.88;5034908;28;20079;-74
2024/01/18 09:49:56;;;;;;;38.35;18.88;;;;;;;-0.51;100.00;98364.09;5039058;28;20456;-74
2024/01/18 09:52:25;;;;;;;30.63;17.60;;;;;;;-0.45;100.00;98372.50;5049002;28;20049;-74
2024/01/18 09:54:55;;;;;;;29.33;17.88;;;;;;;-0.38;100.00;98370.53;5045006;28;20084;-74
2024/01/18 09:57:32;;;;;;;34.20;16.95;;;;;;;-0.36;100.00;98377.41;5018634;28;20045;-72
2024/01/18 10:00:03;;;;;;;31.45;17.50;;;;;;;-0.32;100.00;98378.16;5001295;28;20051;-72
2024/01/18 10:02:38;;;;;;;29.20;15.93;;;;;;;-0.31;100.00;98377.22;5012360;28;20423;-72
2024/01/18 10:05:08;;;;;;;32.70;15.95;;;;;;;-0.31;100.00;98382.41;5039681;28;20075;-74
2024/01/18 10:07:36;;;;;;;;;;;;;;;-0.30;100.00;98384.09;5050627;28;20130;-72
2024/01/18 10:10:12;;;;;;;26.90;14.93;;;;;;;-0.29;100.00;98392.75;5026961;28;19971;-73
2024/01/18 10:12:47;;;;;;;26.42;13.80;;;;;;;-0.23;100.00;98387.34;5024045;28;21036;-72
2024/01/18 10:15:32;;;;;;;26.00;13.50;;;;;;;-0.25;100.00;98390.00;5023568;28;20091;-74
2024/01/18 10:18:03;;;;;;;23.38;13.07;;;;;;;-0.16;100.00;98422.66;5042921;28;20103;-72
2024/01/18 10:20:32;;;;;;;21.50;12.93;;;;;;;-0.13;100.00;98419.94;5034291;28;20046;-72
2024/01/18 10:23:01;;;;;;;23.42;13.82;;;;;;;-0.17;100.00;98405.34;5039227;28;20041;-74
2024/01/18 10:25:39;;;;;;;;;;;;;;;-0.10;100.00;98412.88;5048111;28;20044;-73
2024/01/18 10:28:11;;;;;;;21.95;11.70;;;;;;;-0.05;100.00;98405.75;5045492;28;19925;-72
2024/01/18 10:30:39;;;;;;;21.73;11.32;;;;;;;-0.03;100.00;98403.13;5029605;28;22374;-72
2024/01/18 10:33:08;;;;;;;23.25;12.20;;;;;;;0.06;100.00;98435.75;5028140;28;20052;-73
2024/01/18 10:35:37;;;;;;;17.37;8.33;;;;;;;0.11;100.00;98442.50;5035177;28;20045;-73
2024/01/18 10:38:07;;;;;;;22.85;11.82;;;;;;;0.04;100.00;98429.75;5029254;28;20037;-75
2024/01/18 10:40:37;;;;;;;22.83;10.75;;;;;;;0.12;100.00;98422.53;5024786;28;20061;-76
2024/01/18 10:43:08;;;;;;;22.95;11.90;;;;;;;0.16;100.00;98430.13;5005099;28;20045;-72
2024/01/18 10:45:39;;;;;;;18.48;9.85;;;;;;;0.21;100.00;98435.19;5025736;28;20401;-76
2024/01/18 10:48:08;;;;;;;;;;;;;;;0.25;100.00;98444.59;5034805;28;20046;-72
2024/01/18 10:50:43;;;;;;;17.48;9.38;;;;;;;0.23;100.00;98454.19;5031875;28;19985;-73
2024/01/18 10:53:13;;;;;;;19.92;10.38;;;;;;;0.26;100.00;98465.38;5039703;28;20112;-73
2024/01/18 10:55:42;;;;;;;19.48;9.52;;;;;;;0.27;100.00;98469.66;5016088;28;20091;-77
2024/01/18 10:58:11;;;;;;;18.92;9.60;;;;;;;0.24;100.00;98464.56;5013648;28;20059;-73
2024/01/18 11:00:43;;;;;;;19.50;10.25;;;;;;;0.33;100.00;98477.22;5028797;28;20057;-74
2024/01/18 11:03:12;;;;;;;20.13;9.85;;;;;;;0.28;100.00;98460.09;5024908;28;20502;-73
2024/01/18 11:05:42;;;;;;;19.80;9.98;;;;;;;0.48;100.00;98482.78;5024630;28;20049;-74
2024/01/18 11:08:12;;;;;;;17.05;9.77;;;;;;;0.55;100.00;98489.47;5037254;28;20042;-76
2024/01/18 11:10:46;;;;;;;18.58;8.68;;;;;;;0.61;100.00;98504.91;5028081;28;21136;-73
2024/01/18 11:13:17;;;;;;;19.55;9.52;;;;;;;0.59;100.00;98491.91;5024192;28;20132;-74
2024/01/18 11:15:48;;;;;;;15.25;8.27;;;;;;;0.62;100.00;98490.97;5029185;28;20041;-74
2024/01/18 11:18:15;;;;;;;;;;;;;;;0.71;100.00;98498.41;5034048;28;20103;-74
2024/01/18 11:21:08;;;;;;;15.40;8.20;;;;;;;0.80;100.00;98508.47;5030852;28;20282;-74
2024/01/18 11:23:39;;;;;;;19.10;8.68;;;;;;;0.94;100.00;98508.00;5018128;28;20418;-75
2024/01/18 11:26:22;;;;;;;17.50;8.05;;;;;;;1.00;100.00;98500.75;5047386;28;20129;-74
2024/01/18 11:28:50;;;;;;;15.85;8.07;;;;;;;1.06;100.00;98507.50;5023051;28;20084;-74
2024/01/18 11:31:50;;;;;;;15.95;8.10;;;;;;;1.09;100.00;98511.75;5006307;28;20050;-75
2024/01/18 11:34:34;;;;;;;15.50;7.45;;;;;;;1.20;100.00;98525.22;5031519;28;20136;-73